Time;durP1;ratioP1;P1;durP2;ratioP2;P2;SDS_P1;SDS_P2;PMS_P1;PMS_P2;Temp;Humidity;BMP_temperature;BMP_pressure;BME280_temperature;BME280_humidity;BME280_pressure;Samples;Min_cycle;Max_cycle;Signal;HPM_P1;HPM_P2
2023/10/12 00:02:35;;;;;;;10.65;3.00;;;;;;;20.27;100.00;101434.53;20996546;28;20044;-71
2023/10/12 00:13:00;;;;;;;17.08;3.10;;;;;;;20.20;100.00;101438.22;20931455;28;20055;-71
2023/10/12 00:23:26;;;;;;;11.90;2.55;;;;;;;20.16;100.00;101425.72;20921881;28;20045;-70
2023/10/12 00:33:51;;;;;;;10.15;2.67;;;;;;;20.16;100.00;101419.47;20948712;28;20048;-70
2023/10/12 00:44:18;;;;;;;9.88;2.55;;;;;;;20.16;100.00;101419.47;20933976;28;20048;-71
2023/10/12 00:54:49;;;;;;;9.68;2.78;;;;;;;20.14;100.00;101416.84;20961326;28;20072;-70
2023/10/12 01:05:12;;;;;;;16.20;2.67;;;;;;;20.10;100.00;101412.41;20945645;28;20079;-71
2023/10/12 01:15:40;;;;;;;10.30;2.40;;;;;;;20.09;100.00;101416.00;20951663;28;20063;-71
2023/10/12 01:26:10;;;;;;;11.80;2.60;;;;;;;20.15;100.00;101404.34;20911804;28;20076;-71
2023/10/12 01:36:32;;;;;;;13.57;3.13;;;;;;;20.15;100.00;101401.66;20936752;28;20048;-71
2023/10/12 01:46:57;;;;;;;16.55;2.72;;;;;;;20.08;100.00;101405.31;20968767;28;20064;-70
2023/10/12 01:57:30;;;;;;;11.77;2.55;;;;;;;20.02;100.00;101400.03;20984246;28;20071;-71
2023/10/12 02:07:56;;;;;;;8.55;2.13;;;;;;;19.98;100.00;101393.81;20987544;28;20053;-71
2023/10/12 02:18:19;;;;;;;11.95;2.22;;;;;;;19.85;100.00;101392.19;20936989;28;20187;-71
2023/10/12 02:28:46;;;;;;;13.98;3.08;;;;;;;19.80;100.00;101389.59;20937640;28;20145;-70
2023/10/12 02:39:15;;;;;;;8.82;1.95;;;;;;;19.72;100.00;101399.50;20940940;28;20052;-71
2023/10/12 02:49:41;;;;;;;10.65;2.60;;;;;;;19.67;100.00;101393.31;20938915;28;20499;-71
2023/10/12 03:00:12;;;;;;;10.48;2.50;;;;;;;19.65;100.00;101391.53;20944513;28;20053;-71
2023/10/12 03:10:45;;;;;;;10.10;2.50;;;;;;;19.67;100.00;101408.50;20916766;28;20771;-71
2023/10/12 03:21:12;;;;;;;10.25;2.30;;;;;;;19.60;100.00;101426.44;20973203;28;20063;-71
2023/10/12 03:31:52;;;;;;;8.23;1.88;;;;;;;19.59;100.00;101437.16;20958559;28;20052;-71
2023/10/12 03:42:41;;;;;;;11.32;2.22;;;;;;;19.58;100.00;101446.97;20952643;28;20052;-71
2023/10/12 03:53:04;;;;;;;10.60;2.30;;;;;;;19.63;100.00;101449.59;20968282;28;20420;-71
2023/10/12 04:03:37;;;;;;;15.70;2.42;;;;;;;19.67;100.00;101454.03;20973434;28;20048;-72
2023/10/12 04:24:47;;;;;;;11.55;2.30;;;;;;;19.73;100.00;101464.69;20956531;28;20064;-71
2023/10/12 04:35:20;;;;;;;11.63;2.50;;;;;;;19.79;100.00;101470.88;20952604;28;20055;-71
2023/10/12 04:46:16;;;;;;;9.88;1.92;;;;;;;19.81;100.00;101487.84;20937146;28;20044;-71
2023/10/12 04:56:49;;;;;;;14.13;3.47;;;;;;;19.83;100.00;101494.03;20946297;28;20435;-71
2023/10/12 05:07:27;;;;;;;13.07;3.17;;;;;;;19.89;100.00;101509.16;20935289;28;20132;-71
2023/10/12 05:17:52;;;;;;;11.80;2.97;;;;;;;20.03;100.00;101519.72;20933391;28;20122;-71
2023/10/12 05:28:14;;;;;;;16.08;2.60;;;;;;;20.20;100.00;101523.13;20958790;28;20053;-71
2023/10/12 05:38:48;;;;;;;10.98;2.47;;;;;;;20.39;100.00;101551.53;20967324;28;20071;-71
2023/10/12 05:49:13;;;;;;;13.55;2.70;;;;;;;20.52;100.00;101569.25;20967811;28;20055;-70
2023/10/12 05:59:38;;;;;;;16.20;3.30;;;;;;;20.61;100.00;101574.50;20963113;28;20048;-71
2023/10/12 06:10:09;;;;;;;13.13;3.33;;;;;;;20.82;100.00;101577.81;20966549;28;20388;-71
2023/10/12 06:20:40;;;;;;;12.57;2.60;;;;;;;21.14;100.00;101596.16;20952256;28;20050;-71
2023/10/12 06:31:04;;;;;;;10.85;2.33;;;;;;;21.31;100.00;101602.22;20965686;28;20258;-71
2023/10/12 06:41:58;;;;;;;10.60;2.00;;;;;;;21.47;100.00;101615.38;20950054;28;20055;-71
2023/10/12 06:52:19;;;;;;;16.48;2.90;;;;;;;21.66;100.00;101624.03;20950610;28;20048;-71
2023/10/12 07:02:45;;;;;;;11.82;3.03;;;;;;;21.90;100.00;101620.06;20965002;28;20056;-71
2023/10/12 07:13:10;;;;;;;12.43;3.00;;;;;;;22.04;100.00;101634.19;20963450;28;20143;-71
2023/10/12 07:23:42;;;;;;;11.07;2.10;;;;;;;22.31;100.00;101638.19;20961303;28;20055;-71
2023/10/12 07:34:05;;;;;;;10.05;2.15;;;;;;;22.46;100.00;101640.56;20977196;28;20052;-71
2023/10/12 07:44:39;;;;;;;10.60;2.53;;;;;;;22.75;100.00;101647.22;20971149;28;20049;-71
2023/10/12 07:55:04;;;;;;;11.57;2.90;;;;;;;23.15;100.00;101648.16;20944663;28;20059;-71
2023/10/12 08:16:15;;;;;;;9.98;2.00;;;;;;;23.43;100.00;101643.88;20974137;28;20055;-71
2023/10/12 08:26:57;;;;;;;12.82;2.67;;;;;;;23.44;100.00;101642.06;20963302;28;20067;-71
2023/10/12 08:37:20;;;;;;;10.35;2.72;;;;;;;23.83;100.00;101633.06;20972191;28;20523;-71
2023/10/12 08:47:53;;;;;;;9.73;2.45;;;;;;;23.80;100.00;101645.75;20958771;28;20063;-71
2023/10/12 08:58:35;;;;;;;12.52;2.53;;;;;;;23.91;100.00;101640.06;20957371;28;20481;-71
2023/10/12 09:09:00;;;;;;;12.23;2.38;;;;;;;24.30;100.00;101647.16;20971123;28;20514;-71
2023/10/12 09:19:28;;;;;;;13.35;2.95;;;;;;;24.35;100.00;101642.50;20969082;28;20051;-71
2023/10/12 09:29:58;;;;;;;16.08;2.85;;;;;;;24.30;100.00;101638.16;20951151;28;20048;-71
2023/10/12 09:40:34;;;;;;;11.60;2.53;;;;;;;24.37;100.00;101631.66;20967818;28;20110;-70
2023/10/12 09:51:01;;;;;;;15.93;2.80;;;;;;;24.20;100.00;101632.16;20953800;28;20046;-71
2023/10/12 10:01:36;;;;;;;15.40;2.97;;;;;;;24.05;100.00;101621.72;20953581;28;20048;-71
2023/10/12 10:12:00;;;;;;;9.52;2.72;;;;;;;24.02;100.00;101617.31;20978770;28;20456;-71
2023/10/12 10:22:23;;;;;;;14.25;2.05;;;;;;;24.97;100.00;101605.63;20960677;28;20057;-71
2023/10/12 10:33:08;;;;;;;9.55;2.28;;;;;;;25.51;100.00;101588.59;20954864;28;20055;-71
2023/10/12 10:43:31;;;;;;;11.10;2.53;;;;;;;24.82;100.00;101578.16;21002594;28;20175;-71
2023/10/12 10:54:03;;;;;;;9.68;2.45;;;;;;;24.51;100.00;101581.75;20985976;28;20396;-70
2023/10/12 11:04:42;;;;;;;10.43;2.85;;;;;;;24.49;100.00;101574.63;21002261;28;20048;-70
2023/10/12 11:15:11;;;;;;;9.60;2.60;;;;;;;24.43;100.00;101561.31;20951542;28;20117;-70
2023/10/12 11:25:39;;;;;;;10.43;3.03;;;;;;;25.01;100.00;101557.78;20985626;28;20075;-70
2023/10/12 11:36:04;;;;;;;13.38;2.90;;;;;;;25.01;100.00;101547.84;20989705;28;20051;-70
2023/10/12 11:46:28;;;;;;;11.32;2.58;;;;;;;25.10;100.00;101541.28;20945186;28;20049;-70
2023/10/12 11:56:52;;;;;;;12.50;2.80;;;;;;;25.21;100.00;101549.91;20950354;28;20114;-70
2023/10/12 12:07:15;;;;;;;13.70;2.90;;;;;;;25.16;100.00;101543.78;20954045;28;20055;-70
2023/10/12 12:17:39;;;;;;;11.18;2.80;;;;;;;24.92;99.19;101534.66;20967255;28;20048;-70
2023/10/12 12:28:04;;;;;;;8.40;2.33;;;;;;;25.00;99.24;101535.28;20937712;28;20155;-70
2023/10/12 12:49:11;;;;;;;9.00;2.65;;;;;;;25.04;94.46;101524.38;20952814;28;20511;-70
2023/10/12 12:59:35;;;;;;;13.30;3.10;;;;;;;25.00;94.70;101521.78;20957954;28;20042;-70
2023/10/12 13:09:58;;;;;;;8.57;2.42;;;;;;;25.09;96.38;101519.69;20942574;28;20052;-70
2023/10/12 13:20:28;;;;;;;13.93;2.35;;;;;;;24.89;95.22;101505.00;20976416;28;20559;-70
2023/10/12 13:30:51;;;;;;;9.13;2.72;;;;;;;24.56;96.43;101501.50;20942404;28;20051;-69
2023/10/12 13:41:15;;;;;;;10.70;2.63;;;;;;;24.22;97.02;101498.03;20919058;28;20052;-70
2023/10/12 13:51:38;;;;;;;13.05;3.00;;;;;;;24.00;99.86;101495.03;20937065;28;20074;-69
2023/10/12 14:02:05;;;;;;;14.50;3.30;;;;;;;23.93;100.00;101497.94;20942544;28;20045;-70
2023/10/12 14:12:27;;;;;;;12.40;3.42;;;;;;;23.76;100.00;101501.97;20975768;28;20147;-69
2023/10/12 14:22:54;;;;;;;11.85;3.50;;;;;;;23.57;100.00;101506.09;20959235;28;20083;-70
2023/10/12 14:33:19;;;;;;;10.02;3.13;;;;;;;23.41;100.00;101500.19;20979341;28;20068;-70
2023/10/12 14:43:46;;;;;;;14.07;3.20;;;;;;;23.26;100.00;101507.78;20967952;28;20123;-70
2023/10/12 14:54:10;;;;;;;9.70;3.20;;;;;;;23.11;100.00;101502.75;20977082;28;20183;-70
2023/10/12 15:04:41;;;;;;;14.55;3.25;;;;;;;22.99;100.00;101512.00;20974874;28;20561;-70
2023/10/12 15:15:08;;;;;;;10.50;3.70;;;;;;;22.85;100.00;101515.03;20963080;28;20052;-70
2023/10/12 15:25:34;;;;;;;13.18;4.20;;;;;;;22.61;100.00;101515.56;20977331;28;20052;-70
2023/10/12 15:35:57;;;;;;;15.98;4.40;;;;;;;22.44;100.00;101529.38;20976459;28;20049;-69
2023/10/12 15:46:21;;;;;;;13.70;4.00;;;;;;;22.27;100.00;101537.78;20983114;28;20535;-70
2023/10/12 15:56:44;;;;;;;13.27;3.45;;;;;;;22.10;100.00;101553.38;21000215;28;20044;-70
2023/10/12 16:07:09;;;;;;;8.95;4.18;;;;;;;21.96;100.00;101562.63;20940953;28;20049;-70
2023/10/12 16:17:32;;;;;;;12.15;3.67;;;;;;;21.84;100.00;101566.38;21012120;28;20399;-70
2023/10/12 16:28:00;;;;;;;16.10;3.92;;;;;;;21.70;100.00;101580.06;20954728;28;20056;-71
2023/10/12 16:38:23;;;;;;;15.27;4.07;;;;;;;21.55;100.00;101577.63;20935164;28;20052;-70
2023/10/12 16:48:48;;;;;;;15.73;4.65;;;;;;;21.41;100.00;101583.22;20890285;28;20631;-70
2023/10/12 16:59:11;;;;;;;16.50;4.68;;;;;;;21.28;100.00;101578.97;20918207;28;20426;-70
2023/10/12 17:09:35;;;;;;;14.88;3.97;;;;;;;21.15;100.00;101592.56;20970431;28;20058;-69
2023/10/12 17:19:58;;;;;;;11.25;3.90;;;;;;;21.06;100.00;101602.53;20956247;28;20062;-69
2023/10/12 17:30:25;;;;;;;11.45;4.05;;;;;;;21.00;100.00;101601.75;20965102;28;20048;-69
2023/10/12 17:40:48;;;;;;;11.10;4.60;;;;;;;20.87;100.00;101603.66;20961407;28;20083;-70
2023/10/12 17:51:27;;;;;;;13.85;4.43;;;;;;;20.75;100.00;101619.06;20918374;28;20060;-70
2023/10/12 18:01:49;;;;;;;11.55;4.05;;;;;;;20.65;100.00;101626.34;20949201;28;20071;-73
2023/10/12 18:12:14;;;;;;;13.65;5.15;;;;;;;20.57;100.00;101620.19;20994306;28;20053;-74
2023/10/12 18:22:37;;;;;;;15.55;5.38;;;;;;;20.45;100.00;101629.25;20965317;28;20048;-71
2023/10/12 18:33:02;;;;;;;14.02;4.65;;;;;;;20.33;100.00;101637.44;20952149;28;20049;-71
2023/10/12 18:43:24;;;;;;;16.17;4.20;;;;;;;20.28;100.00;101639.25;20965994;28;20068;-70
2023/10/12 18:53:50;;;;;;;9.85;4.22;;;;;;;20.20;100.00;101646.47;20952552;28;20435;-71
2023/10/12 19:04:14;;;;;;;13.32;4.80;;;;;;;20.13;100.00;101640.28;20974283;28;20060;-71
2023/10/12 19:14:38;;;;;;;13.25;4.93;;;;;;;19.94;100.00;101648.50;20960165;28;20056;-70
2023/10/12 19:25:00;;;;;;;11.65;4.72;;;;;;;19.93;100.00;101647.63;20977764;28;20098;-70
2023/10/12 19:35:26;;;;;;;14.05;4.57;;;;;;;19.83;100.00;101659.31;21002382;28;20056;-70
2023/10/12 19:45:48;;;;;;;15.30;4.35;;;;;;;19.88;100.00;101653.03;21006107;28;20062;-71
2023/10/12 19:56:14;;;;;;;11.63;4.18;;;;;;;19.97;100.00;101652.03;21029703;28;20056;-70
2023/10/12 20:06:37;;;;;;;12.75;4.22;;;;;;;20.03;100.00;101662.72;20990179;28;20059;-71
2023/10/12 20:17:01;;;;;;;13.63;4.13;;;;;;;20.13;100.00;101655.47;21058008;28;20055;-71
2023/10/12 20:27:23;;;;;;;10.20;4.20;;;;;;;19.99;100.00;101644.88;21021861;28;20090;-70
2023/10/12 20:37:48;;;;;;;10.77;4.60;;;;;;;19.83;100.00;101641.44;20912665;28;20131;-70
2023/10/12 20:48:11;;;;;;;17.30;5.78;;;;;;;19.80;100.00;101649.53;20959330;28;20055;-70
2023/10/12 20:58:44;;;;;;;15.20;4.47;;;;;;;19.79;100.00;101645.06;20973733;28;20470;-71
2023/10/12 21:09:12;;;;;;;13.43;4.35;;;;;;;19.79;100.00;101645.06;20913016;28;20057;-70
2023/10/12 21:19:45;;;;;;;12.88;4.30;;;;;;;19.69;100.00;101642.47;21038624;28;20448;-71
2023/10/12 21:30:12;;;;;;;14.65;4.60;;;;;;;19.64;100.00;101639.81;21014242;28;20056;-70
2023/10/12 21:40:41;;;;;;;12.05;4.60;;;;;;;19.51;100.00;101640.78;21049760;28;20060;-70
2023/10/12 21:51:03;;;;;;;11.95;4.68;;;;;;;19.44;100.00;101628.31;20957519;28;20404;-70
2023/10/12 22:01:29;;;;;;;12.88;4.70;;;;;;;19.36;100.00;101627.50;20971228;28;20448;-71
2023/10/12 22:11:52;;;;;;;13.38;4.20;;;;;;;19.35;100.00;101636.44;20959385;28;20057;-73
2023/10/12 22:22:18;;;;;;;11.23;4.32;;;;;;;19.32;100.00;101633.75;20934454;28;20416;-73
2023/10/12 22:32:41;;;;;;;10.98;4.10;;;;;;;19.40;100.00;101631.91;20973450;28;20109;-72
2023/10/12 22:43:05;;;;;;;14.65;4.18;;;;;;;19.32;100.00;101618.56;20965936;28;20072;-73
2023/10/12 22:53:29;;;;;;;10.95;4.40;;;;;;;19.23;100.00;101623.97;20976841;28;20460;-74
2023/10/12 23:03:54;;;;;;;11.38;4.25;;;;;;;19.23;100.00;101629.31;20980617;28;20055;-70
2023/10/12 23:14:21;;;;;;;9.27;4.07;;;;;;;19.29;100.00;101625.75;20990616;28;20084;-70
2023/10/12 23:24:45;;;;;;;10.38;4.05;;;;;;;19.33;100.00;101627.50;20970258;28;20130;-70
2023/10/12 23:35:17;;;;;;;12.18;4.97;;;;;;;19.25;100.00;101630.22;20947392;28;20060;-71
2023/10/12 23:45:54;;;;;;;10.43;4.15;;;;;;;19.23;100.00;101620.44;20969057;28;20056;-70
2023/10/12 23:56:17;;;;;;;8.77;4.32;;;;;;;19.15;100.00;101611.56;20939933;28;20044;-70
